Time;durP1;ratioP1;P1;durP2;ratioP2;P2;SDS_P1;SDS_P2;PMS_P1;PMS_P2;Temp;Humidity;BMP_temperature;BMP_pressure;BME280_temperature;BME280_humidity;BME280_pressure;Samples;Min_cycle;Max_cycle;Signal;HPM_P1;HPM_P2
2023/01/30 00:02:06;;;;;;;33.00;15.32;;;4.50;87.20;;;;;;5105787;28;20020;-56
2023/01/30 00:04:31;;;;;;;28.45;15.32;;;4.50;87.20;;;;;;5105719;28;20533;-56
2023/01/30 00:06:57;;;;;;;30.60;15.50;;;4.50;87.20;;;;;;5105868;28;20028;-56
2023/01/30 00:09:22;;;;;;;29.30;15.75;;;4.50;87.30;;;;;;5107194;28;20044;-57
2023/01/30 00:11:48;;;;;;;31.42;14.52;;;4.50;87.40;;;;;;5105895;28;20564;-56
2023/01/30 00:14:14;;;;;;;30.73;16.65;;;4.40;87.30;;;;;;5107168;28;20058;-56
2023/01/30 00:16:40;;;;;;;29.65;14.43;;;4.40;87.30;;;;;;5105807;28;20100;-56
2023/01/30 00:19:06;;;;;;;25.55;14.07;;;4.40;87.40;;;;;;5105816;28;20036;-56
2023/01/30 00:21:31;;;;;;;29.55;14.75;;;4.30;87.40;;;;;;5105780;28;20023;-56
2023/01/30 00:23:59;;;;;;;26.98;14.77;;;4.30;87.40;;;;;;5105864;28;20460;-56
2023/01/30 00:26:25;;;;;;;29.45;14.10;;;4.30;87.40;;;;;;5105729;28;20062;-56
2023/01/30 00:28:50;;;;;;;28.48;15.00;;;4.30;87.40;;;;;;5105433;28;20411;-56
2023/01/30 00:31:16;;;;;;;31.67;15.50;;;4.30;87.50;;;;;;5106887;28;20074;-57
2023/01/30 00:33:41;;;;;;;26.92;14.10;;;4.30;87.50;;;;;;5106862;28;20027;-56
2023/01/30 00:36:08;;;;;;;21.25;14.23;;;4.30;87.60;;;;;;5105453;28;20028;-56
2023/01/30 00:38:34;;;;;;;27.25;14.88;;;4.30;87.60;;;;;;5105165;28;20086;-56
2023/01/30 00:40:59;;;;;;;26.63;14.18;;;4.20;87.70;;;;;;5106396;28;20024;-56
2023/01/30 00:47:04;;;;;;;23.77;14.73;;;4.20;87.80;;;;;;5105298;28;20039;-57
2023/01/30 00:49:16;;;;;;;25.65;15.15;;;4.20;87.70;;;;;;5105014;28;20044;-56
2023/01/30 00:51:41;;;;;;;24.55;14.90;;;4.20;87.70;;;;;;5106687;28;20024;-56
2023/01/30 00:54:07;;;;;;;24.08;14.85;;;4.20;87.80;;;;;;5105825;28;20039;-56
2023/01/30 00:56:32;;;;;;;25.30;14.02;;;4.10;87.80;;;;;;5104999;28;20453;-56
2023/01/30 00:58:58;;;;;;;26.00;14.10;;;4.10;87.80;;;;;;5106167;28;20036;-56
2023/01/30 01:01:23;;;;;;;28.60;15.68;;;4.10;87.90;;;;;;5106141;28;20023;-57
2023/01/30 01:03:49;;;;;;;24.13;14.27;;;4.10;88.00;;;;;;5087716;28;20087;-56
2023/01/30 01:06:14;;;;;;;21.88;14.05;;;4.10;88.00;;;;;;5106107;28;20023;-56
2023/01/30 01:08:40;;;;;;;26.52;14.07;;;4.10;88.00;;;;;;5104712;28;20050;-56
2023/01/30 01:11:05;;;;;;;23.02;14.90;;;4.10;88.00;;;;;;5106083;28;20115;-56
2023/01/30 01:13:31;;;;;;;24.73;13.57;;;4.10;87.90;;;;;;5104629;28;20020;-56
2023/01/30 01:15:56;;;;;;;25.05;15.38;;;4.10;88.00;;;;;;5104641;28;20091;-56
2023/01/30 01:18:22;;;;;;;27.75;14.95;;;4.00;87.90;;;;;;5104603;28;20443;-56
2023/01/30 01:20:48;;;;;;;22.95;14.15;;;4.10;88.00;;;;;;5106109;28;20049;-56
2023/01/30 01:23:13;;;;;;;26.55;15.23;;;4.00;88.00;;;;;;5106250;28;20073;-56
2023/01/30 01:25:39;;;;;;;29.25;14.43;;;4.00;88.00;;;;;;5104693;28;20099;-56
2023/01/30 01:28:04;;;;;;;25.38;13.73;;;4.00;88.00;;;;;;5104998;28;20028;-57
2023/01/30 01:30:30;;;;;;;21.73;14.57;;;4.00;88.10;;;;;;5087581;28;20028;-56
2023/01/30 01:32:55;;;;;;;23.70;14.75;;;4.00;88.10;;;;;;5104414;28;20093;-56
2023/01/30 01:35:21;;;;;;;28.25;14.93;;;4.00;88.10;;;;;;5104557;28;20036;-56
2023/01/30 01:37:46;;;;;;;22.60;13.95;;;4.00;88.10;;;;;;5103749;28;20043;-56
2023/01/30 01:43:18;;;;;;;26.92;13.50;;;3.90;88.20;;;;;;5104470;28;20039;-56
2023/01/30 01:45:43;;;;;;;28.40;13.90;;;3.90;88.20;;;;;;5104313;28;20028;-57
2023/01/30 01:48:17;;;;;;;22.70;14.73;;;3.90;88.30;;;;;;5103981;28;20040;-56
2023/01/30 01:50:56;;;;;;;21.80;13.85;;;3.90;88.20;;;;;;5104160;28;20036;-56
2023/01/30 01:53:24;;;;;;;25.10;14.60;;;3.90;88.30;;;;;;5104266;28;20056;-56
2023/01/30 01:55:51;;;;;;;22.65;14.63;;;3.90;88.40;;;;;;5104187;28;20036;-56
2023/01/30 01:58:28;;;;;;;22.63;14.20;;;3.90;88.50;;;;;;5104033;28;20054;-57
2023/01/30 02:00:55;;;;;;;21.95;14.77;;;3.80;88.40;;;;;;5104414;28;20043;-56
2023/01/30 02:03:22;;;;;;;22.48;14.77;;;3.80;88.40;;;;;;5087000;28;20031;-57
2023/01/30 02:05:50;;;;;;;22.40;14.13;;;3.80;88.50;;;;;;5104021;28;20052;-56
2023/01/30 02:08:18;;;;;;;25.55;14.15;;;3.80;88.50;;;;;;5104062;28;20134;-56
2023/01/30 02:10:44;;;;;;;29.25;15.00;;;3.80;88.60;;;;;;5103944;28;20039;-57
2023/01/30 02:13:09;;;;;;;18.85;14.48;;;3.80;88.60;;;;;;5105327;28;20032;-56
2023/01/30 02:15:35;;;;;;;19.45;14.05;;;3.80;88.60;;;;;;5103914;28;20114;-56
2023/01/30 02:18:01;;;;;;;21.33;14.15;;;3.80;88.70;;;;;;5103891;28;20035;-57
2023/01/30 02:20:29;;;;;;;21.88;14.75;;;3.70;88.50;;;;;;5103911;28;20097;-57
2023/01/30 02:23:21;;;;;;;21.52;14.38;;;3.70;89.20;;;;;;5103911;28;20020;-56
2023/01/30 02:26:02;;;;;;;24.25;14.00;;;3.80;88.70;;;;;;5101904;28;20055;-56
2023/01/30 02:28:39;;;;;;;23.40;14.70;;;3.70;88.70;;;;;;5104943;28;20027;-56
2023/01/30 02:31:24;;;;;;;21.00;14.13;;;3.70;88.60;;;;;;5105195;28;20055;-56
2023/01/30 02:33:58;;;;;;;26.58;14.48;;;3.70;88.60;;;;;;5103945;28;20035;-56
2023/01/30 02:36:29;;;;;;;30.80;14.82;;;3.70;88.60;;;;;;5105239;28;20039;-56
2023/01/30 02:39:18;;;;;;;19.45;13.50;;;3.70;88.60;;;;;;5103698;28;20119;-56
2023/01/30 02:41:51;;;;;;;22.48;14.02;;;3.70;88.70;;;;;;5104003;28;20020;-56
2023/01/30 02:44:44;;;;;;;20.27;13.35;;;3.70;88.60;;;;;;5103849;28;20028;-56
2023/01/30 02:47:14;;;;;;;20.27;13.27;;;3.70;88.70;;;;;;5103524;28;20024;-56
2023/01/30 02:49:43;;;;;;;26.95;15.75;;;3.70;88.60;;;;;;5103944;28;20036;-56
2023/01/30 02:52:10;;;;;;;23.08;15.23;;;3.70;88.60;;;;;;5107587;28;20035;-56
2023/01/30 02:54:35;;;;;;;23.77;14.38;;;3.70;88.60;;;;;;5107469;28;20055;-56
2023/01/30 02:57:01;;;;;;;22.63;14.75;;;3.70;88.60;;;;;;5090347;28;20094;-56
2023/01/30 02:59:31;;;;;;;20.75;14.45;;;3.60;88.40;;;;;;5107381;28;20350;-56
2023/01/30 03:02:04;;;;;;;23.23;14.77;;;3.60;88.60;;;;;;5107346;28;20028;-56
2023/01/30 03:04:47;;;;;;;20.02;14.90;;;3.70;88.60;;;;;;5108546;28;20050;-56
2023/01/30 03:07:25;;;;;;;19.20;14.02;;;3.60;88.50;;;;;;5107242;28;20092;-56
2023/01/30 03:10:01;;;;;;;18.02;13.25;;;3.70;88.60;;;;;;5107109;28;20032;-56
2023/01/30 03:12:27;;;;;;;19.88;13.25;;;3.60;88.60;;;;;;5106930;28;20068;-56
2023/01/30 03:15:06;;;;;;;19.83;13.13;;;3.70;88.60;;;;;;5108175;28;20114;-55
2023/01/30 03:17:31;;;;;;;21.13;13.68;;;3.70;88.70;;;;;;5106600;28;20049;-56
2023/01/30 03:19:57;;;;;;;16.77;13.48;;;3.60;88.70;;;;;;5106805;28;20491;-56
2023/01/30 03:22:22;;;;;;;21.58;14.55;;;3.70;88.80;;;;;;5106990;28;20024;-56
2023/01/30 03:24:49;;;;;;;19.73;14.02;;;3.70;88.80;;;;;;5089406;28;20030;-56
2023/01/30 03:27:14;;;;;;;18.05;14.43;;;3.70;88.80;;;;;;5106660;28;20057;-56
2023/01/30 03:29:40;;;;;;;19.08;13.85;;;3.70;88.90;;;;;;5106608;28;20063;-57
2023/01/30 03:45:34;;;;;;;20.35;14.38;;;3.60;89.00;;;;;;5107874;28;20121;-56
2023/01/30 03:48:00;;;;;;;19.58;14.30;;;3.60;89.20;;;;;;5106329;28;20055;-56
2023/01/30 03:50:28;;;;;;;19.98;15.00;;;3.60;89.30;;;;;;5089746;28;20389;-56
2023/01/30 03:52:53;;;;;;;22.23;15.27;;;3.60;89.90;;;;;;5107648;28;20024;-56
2023/01/30 03:55:19;;;;;;;21.45;16.50;;;3.60;89.50;;;;;;5108874;28;20058;-56
2023/01/30 04:07:56;;;;;;;22.65;15.48;;;3.60;90.00;;;;;;5107727;28;20038;-56
2023/01/30 04:10:22;;;;;;;22.85;15.93;;;3.60;89.90;;;;;;5105970;28;20031;-56
2023/01/30 04:12:48;;;;;;;23.67;15.80;;;3.60;89.80;;;;;;5106157;28;20024;-56
2023/01/30 04:15:13;;;;;;;24.83;15.80;;;3.60;89.90;;;;;;5107240;28;20028;-56
2023/01/30 04:17:39;;;;;;;21.25;14.80;;;3.60;89.70;;;;;;5105717;28;20024;-56
2023/01/30 04:20:05;;;;;;;22.35;16.52;;;3.60;89.80;;;;;;5105834;28;20039;-56
2023/01/30 04:22:30;;;;;;;20.58;16.00;;;3.60;89.90;;;;;;5106849;28;20621;-56
2023/01/30 04:24:56;;;;;;;20.88;15.68;;;3.60;89.90;;;;;;5088844;28;20131;-56
2023/01/30 04:27:22;;;;;;;25.02;16.92;;;3.60;89.80;;;;;;5105830;28;20128;-56
2023/01/30 04:29:47;;;;;;;20.48;16.30;;;3.60;89.80;;;;;;5105602;28;20032;-56
2023/01/30 04:32:13;;;;;;;22.48;16.23;;;3.60;89.70;;;;;;5106971;28;20016;-57
2023/01/30 04:34:38;;;;;;;20.63;16.05;;;3.60;89.70;;;;;;5105486;28;20028;-56
2023/01/30 04:37:04;;;;;;;24.52;16.08;;;3.60;89.80;;;;;;5106741;28;20020;-57
2023/01/30 04:39:29;;;;;;;24.08;15.60;;;3.60;89.70;;;;;;5106625;28;20344;-56
2023/01/30 04:41:55;;;;;;;23.73;16.30;;;3.60;89.70;;;;;;5106649;28;20024;-56
2023/01/30 04:44:20;;;;;;;24.73;16.90;;;3.60;89.60;;;;;;5105118;28;20036;-56
2023/01/30 04:46:46;;;;;;;19.80;15.48;;;3.60;89.70;;;;;;5105262;28;20030;-56
2023/01/30 04:49:11;;;;;;;20.33;15.52;;;3.60;89.70;;;;;;5106265;28;20062;-56
2023/01/30 04:51:37;;;;;;;24.90;16.98;;;3.60;89.70;;;;;;5105405;28;20024;-56
2023/01/30 04:54:03;;;;;;;23.92;17.85;;;3.70;89.90;;;;;;5106442;28;20059;-56
2023/01/30 04:56:28;;;;;;;21.85;17.00;;;3.70;90.00;;;;;;5105204;28;20391;-56
2023/01/30 04:58:54;;;;;;;21.55;15.93;;;3.60;90.00;;;;;;5104927;28;20084;-56
2023/01/30 05:01:36;;;;;;;21.27;15.60;;;3.60;90.00;;;;;;5105102;28;20016;-56
2023/01/30 05:04:01;;;;;;;23.55;17.45;;;3.60;90.00;;;;;;5104952;28;20084;-56
2023/01/30 05:06:27;;;;;;;23.08;17.05;;;3.60;90.00;;;;;;5087758;28;20030;-56
2023/01/30 05:08:54;;;;;;;23.92;17.58;;;3.60;90.00;;;;;;5104799;28;20096;-56
2023/01/30 05:11:19;;;;;;;25.77;16.27;;;3.60;90.00;;;;;;5105005;28;20035;-57
2023/01/30 05:13:45;;;;;;;24.00;17.65;;;3.60;90.00;;;;;;5103948;28;20028;-56
2023/01/30 05:16:11;;;;;;;21.30;16.17;;;3.60;90.00;;;;;;5106218;28;20046;-56
2023/01/30 05:18:37;;;;;;;23.08;16.48;;;3.60;90.00;;;;;;5104750;28;20056;-56
2023/01/30 05:21:06;;;;;;;24.60;16.48;;;3.60;90.00;;;;;;5106118;28;20031;-57
2023/01/30 05:23:32;;;;;;;24.48;17.05;;;3.60;90.00;;;;;;5104845;28;20112;-56
2023/01/30 05:25:58;;;;;;;23.38;16.98;;;3.60;90.00;;;;;;5104544;28;20024;-56
2023/01/30 05:28:24;;;;;;;23.77;15.93;;;3.50;90.00;;;;;;5104640;28;20028;-56
2023/01/30 05:30:49;;;;;;;24.77;17.48;;;3.60;90.00;;;;;;5104621;28;20470;-56
2023/01/30 05:33:15;;;;;;;27.13;17.30;;;3.50;90.00;;;;;;5104406;28;20028;-56
2023/01/30 05:35:47;;;;;;;24.00;16.10;;;3.50;90.00;;;;;;5104406;28;20120;-56
2023/01/30 05:38:13;;;;;;;24.67;16.73;;;3.60;90.00;;;;;;5104614;28;20028;-56
2023/01/30 05:40:38;;;;;;;22.13;16.60;;;3.50;90.00;;;;;;5104423;28;20028;-56
2023/01/30 05:43:04;;;;;;;22.38;16.38;;;3.50;90.00;;;;;;5105490;28;20020;-56
2023/01/30 05:45:29;;;;;;;25.50;17.60;;;3.50;90.10;;;;;;5087357;28;20044;-56
2023/01/30 05:47:55;;;;;;;24.25;17.63;;;3.50;90.10;;;;;;5104254;28;20556;-56
2023/01/30 05:50:20;;;;;;;23.75;17.20;;;3.50;90.00;;;;;;5104225;28;20505;-56
2023/01/30 05:52:46;;;;;;;26.23;17.60;;;3.50;90.00;;;;;;5104413;28;20387;-56
2023/01/30 05:55:12;;;;;;;23.42;16.70;;;3.50;90.00;;;;;;5104112;28;20036;-58
2023/01/30 05:57:37;;;;;;;20.40;15.65;;;3.50;90.10;;;;;;5104012;28;20027;-57
2023/01/30 06:00:04;;;;;;;22.60;16.55;;;3.50;90.10;;;;;;5104052;28;20020;-56
2023/01/30 06:02:30;;;;;;;24.30;17.38;;;3.40;90.10;;;;;;5103916;28;20168;-56
2023/01/30 06:04:56;;;;;;;23.60;17.13;;;3.50;90.10;;;;;;5105397;28;20387;-56
2023/01/30 06:07:21;;;;;;;20.58;16.73;;;3.40;90.10;;;;;;5103826;28;20122;-56
2023/01/30 06:09:47;;;;;;;20.80;16.40;;;3.40;90.10;;;;;;5105242;28;20036;-56
2023/01/30 06:12:12;;;;;;;23.98;17.67;;;3.40;90.10;;;;;;5105335;28;20028;-56
2023/01/30 06:14:38;;;;;;;22.20;16.65;;;3.40;90.10;;;;;;5104619;28;20032;-57
2023/01/30 06:17:03;;;;;;;22.92;17.70;;;3.40;90.10;;;;;;5106127;28;20031;-56
2023/01/30 06:19:29;;;;;;;23.30;17.67;;;3.40;90.10;;;;;;5103772;28;20020;-57
2023/01/30 06:21:54;;;;;;;25.33;17.30;;;3.40;90.10;;;;;;5104050;28;20032;-56
2023/01/30 06:24:20;;;;;;;26.42;17.02;;;3.40;90.10;;;;;;5106748;28;20111;-56
2023/01/30 06:26:46;;;;;;;22.25;16.67;;;3.40;90.10;;;;;;5107937;28;20035;-55
2023/01/30 06:29:11;;;;;;;21.63;16.58;;;3.40;90.40;;;;;;5109142;28;20101;-56
2023/01/30 06:31:37;;;;;;;23.20;17.35;;;3.30;90.10;;;;;;5109128;28;20100;-57
2023/01/30 06:34:02;;;;;;;23.80;17.50;;;3.30;90.10;;;;;;5107668;28;20028;-56
2023/01/30 06:36:28;;;;;;;23.05;17.30;;;3.30;90.10;;;;;;5109131;28;20023;-56
2023/01/30 06:38:53;;;;;;;22.70;17.00;;;3.30;90.40;;;;;;5108996;28;20035;-56
2023/01/30 06:41:19;;;;;;;23.38;16.88;;;3.30;90.10;;;;;;5107789;28;20020;-57
2023/01/30 06:43:45;;;;;;;22.25;15.80;;;3.30;90.40;;;;;;5107706;28;20019;-56
2023/01/30 06:46:10;;;;;;;22.65;16.33;;;3.30;90.10;;;;;;5107575;28;20020;-56
2023/01/30 06:48:36;;;;;;;22.27;16.77;;;3.30;90.20;;;;;;5107302;28;20056;-56
2023/01/30 06:51:01;;;;;;;23.75;16.55;;;3.20;90.10;;;;;;5107465;28;20149;-57
2023/01/30 06:53:29;;;;;;;22.05;16.60;;;3.20;90.10;;;;;;5107431;28;20159;-56
2023/01/30 06:55:58;;;;;;;23.00;18.05;;;3.20;90.10;;;;;;5107194;28;20509;-56
2023/01/30 06:58:24;;;;;;;21.48;16.48;;;3.20;90.20;;;;;;5106718;28;20028;-56
2023/01/30 07:00:49;;;;;;;22.60;16.98;;;3.20;90.10;;;;;;5108273;28;20077;-56
2023/01/30 07:03:16;;;;;;;22.45;16.98;;;3.20;90.20;;;;;;5107006;28;20028;-56
2023/01/30 07:05:42;;;;;;;23.70;17.88;;;3.20;90.20;;;;;;5106927;28;20020;-57
2023/01/30 07:08:08;;;;;;;22.73;17.05;;;3.20;90.10;;;;;;5106998;28;20028;-56
2023/01/30 07:10:34;;;;;;;22.85;18.05;;;3.20;90.10;;;;;;5108459;28;20436;-56
2023/01/30 07:13:00;;;;;;;21.13;16.77;;;3.20;90.10;;;;;;5106640;28;20049;-56
2023/01/30 07:15:26;;;;;;;23.95;16.38;;;3.20;90.40;;;;;;5106539;28;20036;-56
2023/01/30 07:17:51;;;;;;;23.20;16.40;;;3.20;90.10;;;;;;5106347;28;20039;-56
2023/01/30 07:20:17;;;;;;;23.80;16.90;;;3.20;90.00;;;;;;5107708;28;20111;-56
2023/01/30 07:22:51;;;;;;;22.17;17.73;;;3.20;90.00;;;;;;5107633;28;20034;-56
2023/01/30 07:25:17;;;;;;;23.45;16.98;;;3.20;90.00;;;;;;5106267;28;20039;-56
2023/01/30 07:27:42;;;;;;;23.50;18.15;;;3.20;90.00;;;;;;5089250;28;20157;-57
2023/01/30 07:30:08;;;;;;;21.55;17.17;;;3.20;89.90;;;;;;5107883;28;20056;-56
2023/01/30 07:32:34;;;;;;;22.63;16.52;;;3.20;89.80;;;;;;5107659;28;20024;-57
2023/01/30 07:34:59;;;;;;;23.55;17.23;;;3.20;90.00;;;;;;5106259;28;20096;-56
2023/01/30 07:37:25;;;;;;;24.80;17.73;;;3.20;90.20;;;;;;5105949;28;20101;-56
2023/01/30 07:39:51;;;;;;;24.30;17.40;;;3.10;89.90;;;;;;5106437;28;20030;-56
2023/01/30 07:42:16;;;;;;;21.88;16.38;;;3.10;89.90;;;;;;5106715;28;20027;-56
2023/01/30 07:44:42;;;;;;;24.10;17.77;;;3.10;89.90;;;;;;5106452;28;20396;-56
2023/01/30 07:47:07;;;;;;;24.70;17.90;;;3.10;89.90;;;;;;5106068;28;20091;-56
2023/01/30 07:49:33;;;;;;;24.08;18.05;;;3.10;89.80;;;;;;5105922;28;20365;-56
2023/01/30 07:51:58;;;;;;;23.30;18.10;;;3.10;89.80;;;;;;5107428;28;20012;-56
2023/01/30 07:54:25;;;;;;;19.67;16.67;;;3.10;89.80;;;;;;5107458;28;20024;-57
2023/01/30 07:56:51;;;;;;;23.52;17.70;;;3.10;89.80;;;;;;5106074;28;20028;-56
2023/01/30 07:59:16;;;;;;;24.17;17.92;;;3.10;89.80;;;;;;5107291;28;20035;-56
2023/01/30 08:01:42;;;;;;;22.08;17.35;;;3.10;89.80;;;;;;5105911;28;20017;-56
2023/01/30 08:04:07;;;;;;;24.42;17.90;;;3.10;89.80;;;;;;5106964;28;20103;-56
2023/01/30 08:06:37;;;;;;;21.08;16.27;;;3.10;90.20;;;;;;5105513;28;20028;-57
2023/01/30 08:09:03;;;;;;;22.65;17.48;;;3.10;89.80;;;;;;5105676;28;20032;-56
2023/01/30 08:11:28;;;;;;;21.50;16.02;;;3.20;89.90;;;;;;5105743;28;20020;-56
2023/01/30 08:13:54;;;;;;;21.98;16.48;;;3.10;89.90;;;;;;5105513;28;20056;-56
2023/01/30 08:16:19;;;;;;;20.83;16.02;;;3.10;89.90;;;;;;5105329;28;20031;-56
2023/01/30 08:18:45;;;;;;;67.55;21.40;;;3.10;90.00;;;;;;5106861;28;20042;-57
2023/01/30 08:21:10;;;;;;;72.45;20.10;;;3.10;89.90;;;;;;5106984;28;20020;-57
2023/01/30 08:23:36;;;;;;;36.13;16.63;;;3.10;89.90;;;;;;5088263;28;20016;-57
2023/01/30 08:26:02;;;;;;;24.27;16.77;;;3.10;89.80;;;;;;5107077;28;20084;-56
2023/01/30 08:28:28;;;;;;;24.17;16.58;;;3.10;90.20;;;;;;5104783;28;20039;-56
2023/01/30 08:30:53;;;;;;;23.15;16.73;;;3.10;89.70;;;;;;5105128;28;20365;-56
2023/01/30 08:33:20;;;;;;;24.25;16.27;;;3.10;90.10;;;;;;5105362;28;20123;-56
2023/01/30 08:35:45;;;;;;;22.88;16.65;;;3.10;89.70;;;;;;5088611;28;20044;-56
2023/01/30 08:38:11;;;;;;;23.58;17.23;;;3.10;89.70;;;;;;5106496;28;20472;-56
2023/01/30 08:40:37;;;;;;;25.23;15.77;;;3.10;89.70;;;;;;5087668;28;20035;-57
2023/01/30 08:43:02;;;;;;;24.35;16.25;;;3.10;89.70;;;;;;5104899;28;20069;-56
2023/01/30 08:45:28;;;;;;;22.83;17.75;;;3.10;89.60;;;;;;5105097;28;20070;-56
2023/01/30 08:48:04;;;;;;;23.00;17.70;;;3.10;89.60;;;;;;5106306;28;20032;-57
2023/01/30 08:50:31;;;;;;;24.05;17.90;;;3.10;89.50;;;;;;5105068;28;20047;-57
2023/01/30 08:52:56;;;;;;;23.38;17.73;;;3.10;89.50;;;;;;5106046;28;20095;-56
2023/01/30 08:55:22;;;;;;;25.88;17.63;;;3.10;89.50;;;;;;5105973;28;20108;-57
2023/01/30 08:57:48;;;;;;;23.08;16.63;;;3.10;89.50;;;;;;5104442;28;20509;-57
2023/01/30 09:00:14;;;;;;;20.95;16.92;;;3.10;89.50;;;;;;5105012;28;20434;-57
2023/01/30 09:02:39;;;;;;;24.08;17.15;;;3.10;89.50;;;;;;5105632;28;20027;-56
2023/01/30 09:05:05;;;;;;;23.80;17.27;;;3.10;90.00;;;;;;5106035;28;20040;-56
2023/01/30 09:07:31;;;;;;;21.15;16.67;;;3.10;89.40;;;;;;5104367;28;20035;-56
2023/01/30 09:09:56;;;;;;;26.25;17.90;;;3.20;89.40;;;;;;5104422;28;20122;-56
2023/01/30 09:12:22;;;;;;;22.17;17.27;;;3.20;89.40;;;;;;5104404;28;20024;-56
2023/01/30 09:14:48;;;;;;;24.83;17.75;;;3.20;89.40;;;;;;5087404;28;20043;-56
2023/01/30 09:17:13;;;;;;;22.25;17.15;;;3.20;89.40;;;;;;5087293;28;20036;-56
2023/01/30 09:19:39;;;;;;;22.35;16.88;;;3.20;89.40;;;;;;5104524;28;20039;-56
2023/01/30 09:22:06;;;;;;;21.40;16.83;;;3.20;89.30;;;;;;5105405;28;20059;-56
2023/01/30 09:24:31;;;;;;;21.38;16.95;;;3.20;89.30;;;;;;5103840;28;20020;-57
2023/01/30 09:26:57;;;;;;;21.08;16.42;;;3.20;89.30;;;;;;5104276;28;20554;-56
2023/01/30 09:29:32;;;;;;;22.90;15.85;;;3.30;89.20;;;;;;5105806;28;20028;-56
2023/01/30 09:31:58;;;;;;;22.77;17.30;;;3.30;89.20;;;;;;5103796;28;20031;-54
2023/01/30 09:34:26;;;;;;;22.95;16.42;;;3.30;89.10;;;;;;5105176;28;20107;-54
2023/01/30 09:36:53;;;;;;;23.35;17.05;;;3.30;89.10;;;;;;5105168;28;20032;-53
2023/01/30 09:39:18;;;;;;;24.38;16.27;;;3.30;89.00;;;;;;5086875;28;20050;-54
2023/01/30 09:42:02;;;;;;;24.40;16.83;;;3.40;89.10;;;;;;5103698;28;20480;-54
2023/01/30 09:44:33;;;;;;;34.03;16.92;;;3.40;89.00;;;;;;5105396;28;20039;-54
2023/01/30 09:47:08;;;;;;;30.92;17.90;;;3.40;89.00;;;;;;5105675;28;20024;-54
2023/01/30 09:49:34;;;;;;;36.90;18.42;;;3.40;89.10;;;;;;5104217;28;20028;-55
2023/01/30 09:52:14;;;;;;;31.85;16.58;;;3.40;89.30;;;;;;5105482;28;20472;-54
2023/01/30 09:54:42;;;;;;;29.30;17.45;;;3.40;89.30;;;;;;5105505;28;20066;-55
2023/01/30 09:57:15;;;;;;;34.40;16.80;;;3.50;89.30;;;;;;5103873;28;20019;-54
2023/01/30 10:00:02;;;;;;;32.17;15.98;;;3.50;89.30;;;;;;5103367;28;20024;-54
2023/01/30 10:02:45;;;;;;;32.10;16.85;;;3.50;89.30;;;;;;5103852;28;20075;-54
2023/01/30 10:05:11;;;;;;;29.42;17.30;;;3.50;89.10;;;;;;5088632;28;20050;-54
2023/01/30 10:08:08;;;;;;;37.10;17.38;;;3.50;89.10;;;;;;5103949;28;20155;-54
2023/01/30 10:10:40;;;;;;;32.05;17.55;;;3.50;89.10;;;;;;5103552;28;20040;-54
2023/01/30 10:13:18;;;;;;;29.73;16.40;;;3.50;88.90;;;;;;5105112;28;20035;-54
2023/01/30 10:15:59;;;;;;;30.15;16.42;;;3.60;89.00;;;;;;5105609;28;20032;-55
2023/01/30 10:18:50;;;;;;;49.85;16.83;;;3.60;89.00;;;;;;5106013;28;20028;-54
2023/01/30 10:21:19;;;;;;;38.40;18.83;;;3.60;88.90;;;;;;5104647;28;20031;-55
2023/01/30 10:23:54;;;;;;;34.08;17.90;;;3.60;88.90;;;;;;5103595;28;20023;-54
2023/01/30 10:26:22;;;;;;;38.97;18.60;;;3.60;88.90;;;;;;5103717;28;20027;-54
2023/01/30 10:29:04;;;;;;;51.70;18.02;;;3.60;89.50;;;;;;5103624;28;20048;-54
2023/01/30 10:31:42;;;;;;;34.05;17.25;;;3.60;88.90;;;;;;5103479;28;20021;-54
2023/01/30 10:34:13;;;;;;;43.53;17.98;;;3.70;88.90;;;;;;5103097;28;20036;-55
2023/01/30 10:37:03;;;;;;;43.92;18.60;;;3.70;89.00;;;;;;5103025;28;20058;-54
2023/01/30 10:39:40;;;;;;;36.95;17.00;;;3.70;88.90;;;;;;5104368;28;20028;-54
2023/01/30 10:42:16;;;;;;;39.05;17.23;;;3.70;88.80;;;;;;5104237;28;20088;-54
2023/01/30 10:44:42;;;;;;;50.95;18.02;;;3.80;88.90;;;;;;5102844;28;20039;-54
2023/01/30 10:47:26;;;;;;;63.28;19.33;;;3.80;88.90;;;;;;5102793;28;20024;-54
2023/01/30 10:49:54;;;;;;;63.55;20.05;;;3.90;89.00;;;;;;5104043;28;20043;-54
2023/01/30 10:52:48;;;;;;;44.17;19.08;;;3.90;89.00;;;;;;5102634;28;20352;-54
2023/01/30 10:55:37;;;;;;;59.17;18.73;;;3.90;89.00;;;;;;5104255;28;20028;-54
2023/01/30 10:58:14;;;;;;;53.67;18.00;;;3.90;88.80;;;;;;5103729;28;20088;-54
2023/01/30 11:00:45;;;;;;;74.05;21.15;;;3.90;89.00;;;;;;5102913;28;20021;-54
2023/01/30 11:03:36;;;;;;;73.97;22.08;;;4.00;88.80;;;;;;5102905;28;20028;-54
2023/01/30 11:06:10;;;;;;;69.78;20.88;;;4.00;88.80;;;;;;5102729;28;20077;-54
2023/01/30 11:08:35;;;;;;;83.35;22.17;;;4.00;88.80;;;;;;5102436;28;20028;-54
2023/01/30 11:11:19;;;;;;;81.60;22.10;;;4.10;88.70;;;;;;5103637;28;20044;-54
2023/01/30 11:13:44;;;;;;;69.70;20.02;;;4.10;88.60;;;;;;5089306;28;20028;-54
2023/01/30 11:16:10;;;;;;;67.75;20.77;;;4.10;88.60;;;;;;5106112;28;20024;-54
2023/01/30 11:18:47;;;;;;;71.32;21.05;;;4.20;88.60;;;;;;5105619;28;20024;-54
2023/01/30 11:21:23;;;;;;;74.00;20.77;;;4.20;88.90;;;;;;5105626;28;20039;-54
2023/01/30 11:23:50;;;;;;;55.85;19.73;;;4.20;88.80;;;;;;5106127;28;20028;-54
2023/01/30 11:26:27;;;;;;;81.03;21.25;;;4.20;88.70;;;;;;5107261;28;20357;-54
2023/01/30 11:28:52;;;;;;;65.18;20.25;;;4.20;88.60;;;;;;5107276;28;20039;-54
2023/01/30 11:31:20;;;;;;;68.72;20.60;;;4.30;88.60;;;;;;5106422;28;20024;-54
2023/01/30 11:33:57;;;;;;;88.22;20.83;;;4.30;88.80;;;;;;5106036;28;20028;-54
2023/01/30 11:36:33;;;;;;;54.53;20.25;;;4.30;88.50;;;;;;5088871;28;20425;-54
2023/01/30 11:39:01;;;;;;;72.15;21.63;;;4.30;88.60;;;;;;5105674;28;20032;-54
2023/01/30 11:41:27;;;;;;;76.32;21.30;;;4.30;88.50;;;;;;5105742;28;20024;-54
2023/01/30 11:44:02;;;;;;;71.93;21.85;;;4.40;88.60;;;;;;5105644;28;20028;-55
2023/01/30 11:46:30;;;;;;;79.70;22.65;;;4.40;88.60;;;;;;5105624;28;20020;-54
2023/01/30 11:48:58;;;;;;;60.30;21.38;;;4.40;88.60;;;;;;5105218;28;20051;-54
2023/01/30 11:51:24;;;;;;;52.45;18.17;;;4.40;88.40;;;;;;5105503;28;20087;-54
2023/01/30 11:53:58;;;;;;;60.80;19.10;;;4.40;88.20;;;;;;5105280;28;20487;-54
2023/01/30 11:56:39;;;;;;;56.85;20.38;;;4.40;88.10;;;;;;5105605;28;20122;-55
2023/01/30 11:59:31;;;;;;;67.07;22.40;;;4.40;88.30;;;;;;5106701;28;20055;-54
2023/01/30 12:02:23;;;;;;;58.53;20.65;;;4.50;88.50;;;;;;5105192;28;20028;-54
2023/01/30 12:04:54;;;;;;;73.97;21.13;;;4.50;88.30;;;;;;5106865;28;20084;-55
2023/01/30 12:07:24;;;;;;;88.97;22.00;;;4.50;88.30;;;;;;5088120;28;20020;-55
2023/01/30 12:09:50;;;;;;;65.25;20.45;;;4.50;88.50;;;;;;5104862;28;20043;-57
2023/01/30 12:12:26;;;;;;;57.97;19.50;;;4.50;88.50;;;;;;5106275;28;20020;-57
2023/01/30 12:14:52;;;;;;;56.20;19.85;;;4.50;88.40;;;;;;5104638;28;20039;-57
2023/01/30 12:17:45;;;;;;;59.90;20.63;;;4.60;88.40;;;;;;5104817;28;20024;-57
2023/01/30 12:20:27;;;;;;;63.47;19.98;;;4.50;88.40;;;;;;5102072;28;20118;-57
2023/01/30 12:23:15;;;;;;;53.42;20.70;;;4.60;88.50;;;;;;5104514;28;20020;-56
2023/01/30 12:25:50;;;;;;;71.45;21.88;;;4.60;88.20;;;;;;5104841;28;20031;-58
2023/01/30 12:28:41;;;;;;;62.58;20.88;;;4.60;88.10;;;;;;5105444;28;20035;-56
2023/01/30 12:31:11;;;;;;;72.85;21.17;;;4.60;88.00;;;;;;5105030;28;20056;-56
2023/01/30 12:33:36;;;;;;;70.75;21.63;;;4.70;87.90;;;;;;5104712;28;20046;-57
2023/01/30 12:36:11;;;;;;;62.38;19.38;;;4.70;87.90;;;;;;5087873;28;20024;-57
2023/01/30 12:38:37;;;;;;;68.03;20.40;;;4.70;87.80;;;;;;5104416;28;20031;-56
2023/01/30 12:41:16;;;;;;;72.22;20.90;;;4.70;87.70;;;;;;5105774;28;20028;-56
2023/01/30 12:44:06;;;;;;;64.47;20.05;;;4.80;87.60;;;;;;5104397;28;20020;-56
2023/01/30 12:46:35;;;;;;;54.90;19.50;;;4.80;87.70;;;;;;5105690;28;20060;-57
2023/01/30 12:49:16;;;;;;;35.35;18.25;;;4.90;87.60;;;;;;5106228;28;20038;-57
2023/01/30 12:52:01;;;;;;;55.75;19.17;;;4.80;87.40;;;;;;5106020;28;20034;-56
2023/01/30 12:54:41;;;;;;;43.80;18.65;;;4.80;87.30;;;;;;5105725;28;20093;-56
2023/01/30 12:57:10;;;;;;;53.00;20.00;;;4.90;87.40;;;;;;5105754;28;20024;-56
2023/01/30 12:59:43;;;;;;;64.03;20.02;;;4.90;87.40;;;;;;5105670;28;20054;-57
2023/01/30 13:02:50;;;;;;;80.07;19.52;;;4.90;87.40;;;;;;5104124;28;20099;-56
2023/01/30 13:05:43;;;;;;;183.75;31.42;;;5.00;87.50;;;;;;5103417;28;20040;-57
2023/01/30 13:08:46;;;;;;;175.38;29.55;;;5.00;87.50;;;;;;5104233;28;20054;-57
2023/01/30 13:11:15;;;;;;;350.55;47.13;;;5.10;87.60;;;;;;5105465;28;20059;-56
2023/01/30 13:13:41;;;;;;;154.75;30.05;;;5.10;87.50;;;;;;5103953;28;20083;-56
2023/01/30 13:16:26;;;;;;;200.43;32.35;;;5.10;87.50;;;;;;5105609;28;20028;-56
2023/01/30 13:19:12;;;;;;;799.58;116.25;;;5.20;87.40;;;;;;5104324;28;20054;-56